Airfield :
LOGIN :

Register | Disclaimer

   EN    FR    IT 

 










Legend :    VFR   Marginal VFR   IFR   Intensive IFR   Very Intensive IFR
Visi :
Ceiling :
>= 8 km
>= 3000ft
5 to 8 km
1000 to 3000 ft
1500m to 5 km
500 to 1000 ft
800 to 1500m
200 to 500 ft
< 800m
< 200 ft
Symbols :   Thunderstorms  Fog  Heavy snow  Heavy precipitations  Wind > 20 kt
SIGMETs :     Misc.  Thunderstorms  Icing  Turbulence  Mountain Waves  Volcanic Ashes






- Airport Elevation : 1830 ft


EBLB - Butgenbach Elsenborn

CURRENT METAR :
  • 151255Z AUTO 23009KT 9999 FEW021/// BKN220/// 04/01 Q1003 BLU

EXPIRED METARs :
  • 151236Z AUTO 23010KT 9999 SCT024/// 05/01 Q1003 WHT
  • 151225Z AUTO 23011KT 9999 SCT026/// 05/01 Q1003 BLU
  • 151221Z AUTO 23012KT 9999 SCT025/// 05/00 Q1002 BLU
  • 151155Z AUTO 23013KT 9999 BKN020/// 05/01 Q1002 WHT
  • 151125Z AUTO 25012KT 9999 BKN017/// 05/01 Q1002 WHT
  • 151055Z AUTO 26013KT 9999 SCT017/// 05/02 Q1002 WHT
  • 151025Z AUTO 25012KT 9999 BKN017/// 05/02 Q1001 WHT

Expired Forecast.



MET'MAP, your aeronautical weather chart ! - Copyright ORBIFLY December 2007 - Disclaimer

ORBIFLY MET'MAP TEAM :

Programming & Development : Alexandra Zaïnal
Concept & original design : Baudouin d'Aumeries
Assistance for programming : Marc-Olivier Méhu
Technical & hardware support : Manuel Goepfert

Contact : metmap@orbifly.com




SOURCES & CREDITS :

   NOAA